Capewater — PBPQ — position and weather

sailwx.info

Track history (hours):
 
Tides and Currents Weather Stations Pressure Air Temp Water Temp Dewpoint Dewpoint Depression Visibility Wind Speed Wind Dir Waves Ship Positions

Capewater

Last reported at 2014-Jul-31 16:33 UTC. Time now 2014-Jul-31 17:42 UTC.
Position N 54°36' W 001°11'.

Length 100 m; draft 7.3 m.

Type: Tanker. MMSI: 246346000.

Date/timePositionNaut miles runAvg speedWind from/ knotsBaromVisibWave heightAir tempDewpointWater temp
2014-Jul-31 16:33N 54°36' W 001°11'0 0.0
2014-Jul-31 15:30N 54°36' W 001°11'0 0.0
2014-Jul-31 14:33N 54°36' W 001°11'2 1.6
2014-Jul-31 13:32N 54°37' W 001°09'9 9.0
2014-Jul-31 12:33N 54°39' W 000°55'1514.8
2014-Jul-31 11:33N 54°35' W 000°30'1514.9
2014-Jul-31 10:34N 54°24' W 000°14'1414.1
2014-Jul-31 09:33N 54°12' W 000°00'1413.5
2014-Jul-31 08:33N 53°60' E 000°10'1313.2
2014-Jul-31 07:33N 53°48' E 000°19'1211.6
2014-Jul-31 06:33N 53°36' E 000°20'10 9.8
2014-Jul-31 05:34N 53°35' E 000°04'10 8.0
2014-Jul-31 04:22N 53°38' W 000°11'0 0.0
2014-Jul-31 03:28N 53°38' W 000°11'0 0.0
2014-Jul-31 02:22N 53°38' W 000°11'0 0.0
2014-Jul-31 01:28N 53°38' W 000°11'0 0.0
2014-Jul-31 00:28N 53°38' W 000°11'0 0.0
2014-Jul-30 23:31N 53°38' W 000°11'0 0.0
2014-Jul-30 22:31N 53°38' W 000°11'0 0.0
2014-Jul-30 21:19N 53°38' W 000°11'0 0.0
2014-Jul-30 20:31N 53°38' W 000°11'0 0.0
2014-Jul-30 19:28N 53°38' W 000°11'0 0.0
2014-Jul-30 18:28N 53°38' W 000°11'0 0.0
2014-Jul-30 17:19N 53°38' W 000°11'0 0.0
2014-Jul-30 16:25N 53°38' W 000°11'0 0.0
2014-Jul-30 15:31N 53°38' W 000°11'0 0.0
2014-Jul-30 14:31N 53°38' W 000°11'0 0.0
2014-Jul-30 13:25N 53°38' W 000°11'0 0.0
2014-Jul-30 12:25N 53°38' W 000°11'0 0.0
2014-Jul-30 11:28N 53°38' W 000°11'0 0.0
2014-Jul-30 10:31N 53°38' W 000°11'0 0.0
2014-Jul-30 09:31N 53°38' W 000°11'0 0.0
2014-Jul-30 08:22N 53°38' W 000°11'0 0.0
2014-Jul-30 07:31N 53°38' W 000°11'0 0.0
2014-Jul-30 06:31N 53°38' W 000°11'0 0.0
2014-Jul-30 05:28N 53°38' W 000°11'0 0.0
2014-Jul-30 04:31N 53°38' W 000°11'0 0.0
2014-Jul-30 03:31N 53°38' W 000°11'0 0.0
2014-Jul-30 02:28N 53°38' W 000°11'0 0.0
2014-Jul-30 01:31N 53°38' W 000°11'0 0.0
2014-Jul-30 00:31N 53°38' W 000°11'0 0.0
2014-Jul-29 23:31N 53°38' W 000°11'0 0.0
2014-Jul-29 22:28N 53°38' W 000°11'0 0.0
2014-Jul-29 21:28N 53°38' W 000°11'0 0.0
2014-Jul-29 20:31N 53°38' W 000°11'0 0.0
2014-Jul-29 19:22N 53°38' W 000°11'0 0.0
2014-Jul-29 18:28N 53°38' W 000°11'0 0.0
2014-Jul-29 17:31N 53°38' W 000°11'1 1.3
2014-Jul-29 16:33N 53°38' W 000°09'1414.4
2014-Jul-29 15:33N 53°33' E 000°14'7 6.6
2014-Jul-29 14:33N 53°33' E 000°25'5 5.4
2014-Jul-29 13:33N 53°30' E 000°33'6 5.9
2014-Jul-29 12:33N 53°27' E 000°41'8 6.8
2014-Jul-29 11:24N 53°23' E 000°52'7 7.5
2014-Jul-29 10:31N 53°20' E 001°02'1313.7
2014-Jul-29 09:33N 53°10' E 001°16'1312.6
2014-Jul-29 08:33N 53°01' E 001°30'1212.0
2014-Jul-29 07:34N 52°52' E 001°44'1313.1
2014-Jul-29 06:33N 52°45' E 002°03'7212.0
2014-Jul-29 00:33N 52°06' E 003°42'1111.3
2014-Jul-28 23:33N 52°01' E 003°59'1413.9
2014-Jul-28 22:34N 51°54' E 004°18'1 0.8
2014-Jul-28 21:31N 51°53' E 004°17'0 0.0
2014-Jul-28 20:31N 51°53' E 004°17'0 0.0
2014-Jul-28 19:25N 51°53' E 004°17'0 0.0
2014-Jul-28 18:22N 51°53' E 004°17'0 0.0
2014-Jul-28 17:31N 51°53' E 004°17'0 0.0
2014-Jul-28 16:16N 51°53' E 004°17'0 0.0
2014-Jul-28 15:31N 51°53' E 004°17'0 0.0
2014-Jul-28 14:31N 51°53' E 004°17'0 0.0
2014-Jul-28 13:19N 51°53' E 004°17'0 0.0
2014-Jul-28 12:22N 51°53' E 004°17'0 0.0
2014-Jul-28 11:07N 51°53' E 004°17'0 0.0
2014-Jul-28 10:28N 51°53' E 004°17'0 0.0
2014-Jul-28 09:25N 51°53' E 004°17'0 0.0
2014-Jul-28 08:28N 51°53' E 004°17'0 0.0
2014-Jul-28 07:22N 51°53' E 004°17'0 0.0
2014-Jul-28 06:19N 51°53' E 004°17'0 0.0
2014-Jul-28 05:22N 51°53' E 004°17'0 0.0
2014-Jul-28 04:31N 51°53' E 004°17'0 0.0
2014-Jul-28 03:28N 51°53' E 004°17'0 0.0
2014-Jul-28 02:31N 51°53' E 004°17'0 0.0
2014-Jul-28 01:22N 51°53' E 004°17'0 0.0
2014-Jul-28 00:28N 51°53' E 004°17'0 0.0
2014-Jul-27 23:33N 51°53' E 004°17'5 4.9
2014-Jul-27 22:33N 51°57' E 004°11'1211.6
2014-Jul-27 21:33N 51°59' E 003°53'1211.5
2014-Jul-27 20:33N 51°57' E 003°35'1211.9
2014-Jul-27 19:33N 51°53' E 003°16'1212.4
2014-Jul-27 18:33N 51°50' E 002°57'1312.6
2014-Jul-27 17:33N 51°46' E 002°38'1211.6
2014-Jul-27 16:33N 51°37' E 002°25'1212.1
2014-Jul-27 15:32N 51°27' E 002°13'1110.9
2014-Jul-27 14:33N 51°17' E 002°07'1111.1
2014-Jul-27 13:33N 51°10' E 001°53'1211.8
2014-Jul-27 12:34N 51°02' E 001°40'4213.3
2014-Jul-27 09:24N 50°28' E 000°60'1113.5
2014-Jul-27 08:33N 50°20' E 000°48'1313.4
2014-Jul-27 07:33N 50°10' E 000°34'3012.2
2014-Jul-27 05:07N 49°48' E 000°02'610.8
2014-Jul-27 04:32N 49°44' W 000°04'1111.1
2014-Jul-27 03:33N 49°33' W 000°02'8 8.3
2014-Jul-27 02:34N 49°28' E 000°09'2 2.3
2014-Jul-27 01:33N 49°29' E 000°12'0 0.0
2014-Jul-27 00:33N 49°29' E 000°12'0 0.0
2014-Jul-26 23:33N 49°29' E 000°12'0 0.0
2014-Jul-26 22:33N 49°29' E 000°12'0 0.0
2014-Jul-26 21:33N 49°29' E 000°12'0 0.0
2014-Jul-26 20:33N 49°29' E 000°12'0 0.0
2014-Jul-26 19:33N 49°29' E 000°12'0 0.0
2014-Jul-26 18:30N 49°29' E 000°12'0 0.0
2014-Jul-26 17:33N 49°29' E 000°12'0 0.0
2014-Jul-26 16:33N 49°29' E 000°12'0 0.0
2014-Jul-26 15:33N 49°29' E 000°12'0 0.0
2014-Jul-26 14:33N 49°29' E 000°12'0 0.0
2014-Jul-26 13:33N 49°29' E 000°12'0 0.0
2014-Jul-26 12:33N 49°29' E 000°12'0 0.0
2014-Jul-26 11:33N 49°29' E 000°12'0 0.0
2014-Jul-26 10:33N 49°29' E 000°12'0 0.0
2014-Jul-26 09:33N 49°29' E 000°12'0 0.0
2014-Jul-26 08:33N 49°29' E 000°12'0 0.0
2014-Jul-26 07:33N 49°29' E 000°12'0 0.0
2014-Jul-26 06:33N 49°29' E 000°12'0 0.0
2014-Jul-26 05:33N 49°29' E 000°12'0 0.0
2014-Jul-26 04:33N 49°29' E 000°12'0 0.0
2014-Jul-26 03:33N 49°29' E 000°12'0 0.0
2014-Jul-26 02:33N 49°29' E 000°12'0 0.0
2014-Jul-26 01:33N 49°29' E 000°12'0 0.0
2014-Jul-26 00:33N 49°29' E 000°12'0 0.0
2014-Jul-25 23:33N 49°29' E 000°12'1 1.4
2014-Jul-25 22:33N 49°29' E 000°10'7 7.0
2014-Jul-25 21:33N 49°30' W 000°00'1211.6
2014-Jul-25 20:33N 49°35' W 000°17'1211.8
2014-Jul-25 19:33N 49°40' W 000°33'1312.5
2014-Jul-25 18:33N 49°46' W 000°50'1313.2
2014-Jul-25 17:33N 49°52' W 001°08'1212.0
2014-Jul-25 16:33N 49°54' W 001°27'1110.7
2014-Jul-25 15:33N 49°54' W 001°43'19 8.2
2014-Jul-25 13:15N 49°53' W 002°13'14 7.5
2014-Jul-25 11:25N 49°52' W 002°34'5411.0
2014-Jul-25 06:28N 49°29' W 003°50'1112.3
2014-Jul-25 05:34N 49°23' W 004°05'1312.6
2014-Jul-25 04:33N 49°17' W 004°21'1412.7
2014-Jul-25 03:27N 49°10' W 004°40'1212.9
2014-Jul-25 02:33N 49°04' W 004°55'75 9.0
2014-Jul-24 18:14N 47°51' W 005°18'1010.9
2014-Jul-24 17:18N 47°45' W 005°05'810.9
2014-Jul-24 16:33N 47°40' W 004°56'1211.1
2014-Jul-24 15:27N 47°33' W 004°41'1011.1
2014-Jul-24 14:33N 47°27' W 004°29'1111.1
2014-Jul-24 13:33N 47°21' W 004°16'1211.9
2014-Jul-24 12:33N 47°14' W 004°01'1514.6
2014-Jul-24 11:33N 47°05' W 003°44'1514.2
2014-Jul-24 10:31N 46°56' W 003°27'2512.3
2014-Jul-24 08:26N 46°42' W 002°56'1011.7
2014-Jul-24 07:33N 46°36' W 002°44'1211.8
2014-Jul-24 06:33N 46°29' W 002°30'1211.9
2014-Jul-24 05:33N 46°21' W 002°17'1211.9
2014-Jul-24 04:33N 46°14' W 002°03'1211.7
2014-Jul-24 03:33N 46°09' W 001°48'1211.9
2014-Jul-24 02:33N 46°07' W 001°31'1110.5
2014-Jul-24 01:31N 46°08' W 001°15'3 0.2
2014-Jul-23 08:21N 46°05' W 001°17'6 2.6
2014-Jul-23 06:08N 46°07' W 001°25'813.2
2014-Jul-23 05:33N 46°07' W 001°36'1413.8
2014-Jul-23 04:34N 46°14' W 001°53'1414.5
2014-Jul-23 03:34N 46°23' W 002°09'1514.6
2014-Jul-23 02:34N 46°32' W 002°26'3314.7
2014-Jul-23 00:17N 46°53' W 003°04'1115.0
2014-Jul-22 23:33N 46°60' W 003°16'1515.0
2014-Jul-22 22:33N 47°10' W 003°33'6114.5
2014-Jul-22 18:21N 47°48' W 004°43'1214.7
2014-Jul-22 17:33N 47°55' W 004°57'1313.2
2014-Jul-22 16:34N 48°05' W 005°10'1515.0
2014-Jul-22 15:34N 48°14' W 004°53'1514.6
2014-Jul-22 14:33N 48°21' W 004°33'5 4.4
2014-Jul-22 13:31N 48°23' W 004°27'0 0.0
2014-Jul-22 12:31N 48°23' W 004°27'0 0.0
2014-Jul-22 11:31N 48°23' W 004°27'0 0.0
2014-Jul-22 10:31N 48°23' W 004°27'0 0.0
2014-Jul-22 09:31N 48°23' W 004°27'0 0.0
2014-Jul-22 08:31N 48°23' W 004°27'0 0.0
2014-Jul-22 07:31N 48°23' W 004°27'0 0.0
2014-Jul-22 06:31N 48°23' W 004°27'0 0.0
2014-Jul-22 05:31N 48°23' W 004°27'0 0.0
2014-Jul-22 04:31N 48°23' W 004°27'0 0.3
2014-Jul-22 03:33N 48°23' W 004°27'1010.3
2014-Jul-22 02:33N 48°18' W 004°41'1010.3
2014-Jul-22 01:33N 48°15' W 004°56'1110.9
2014-Jul-22 00:33N 48°18' W 005°12'1111.1
2014-Jul-21 23:33N 48°22' W 005°27'1110.9
2014-Jul-21 22:33N 48°26' W 005°42'1111.4
2014-Jul-21 21:33N 48°33' W 005°56'2010.0
2014-Jul-21 19:33N 48°52' W 005°48'  
Track history (hours):
 
Tides and Currents Weather Stations Pressure Air Temp Water Temp Dewpoint Dewpoint Depression Visibility Wind Speed Wind Dir Waves Ship Positions

Capewater

Last reported at 2014-Jul-31 16:33 UTC. Time now 2014-Jul-31 17:42 UTC.
Position N 54°36' W 001°11'.

Length 100 m; draft 7.3 m.

Type: Tanker. MMSI: 246346000.

Date/timePositionNaut miles runAvg speedWind from/ knotsBaromVisibWave heightAir tempDewpointWater temp
2014-Jul-31 16:33N 54°36' W 001°11'0 0.0
2014-Jul-31 15:30N 54°36' W 001°11'0 0.0
2014-Jul-31 14:33N 54°36' W 001°11'2 1.6
2014-Jul-31 13:32N 54°37' W 001°09'9 9.0
2014-Jul-31 12:33N 54°39' W 000°55'1514.8
2014-Jul-31 11:33N 54°35' W 000°30'1514.9
2014-Jul-31 10:34N 54°24' W 000°14'1414.1
2014-Jul-31 09:33N 54°12' W 000°00'1413.5
2014-Jul-31 08:33N 53°60' E 000°10'1313.2
2014-Jul-31 07:33N 53°48' E 000°19'1211.6
2014-Jul-31 06:33N 53°36' E 000°20'10 9.8
2014-Jul-31 05:34N 53°35' E 000°04'10 8.0
2014-Jul-31 04:22N 53°38' W 000°11'0 0.0
2014-Jul-31 03:28N 53°38' W 000°11'0 0.0
2014-Jul-31 02:22N 53°38' W 000°11'0 0.0
2014-Jul-31 01:28N 53°38' W 000°11'0 0.0
2014-Jul-31 00:28N 53°38' W 000°11'0 0.0
2014-Jul-30 23:31N 53°38' W 000°11'0 0.0
2014-Jul-30 22:31N 53°38' W 000°11'0 0.0
2014-Jul-30 21:19N 53°38' W 000°11'0 0.0
2014-Jul-30 20:31N 53°38' W 000°11'0 0.0
2014-Jul-30 19:28N 53°38' W 000°11'0 0.0
2014-Jul-30 18:28N 53°38' W 000°11'0 0.0
2014-Jul-30 17:19N 53°38' W 000°11'0 0.0
2014-Jul-30 16:25N 53°38' W 000°11'0 0.0
2014-Jul-30 15:31N 53°38' W 000°11'0 0.0
2014-Jul-30 14:31N 53°38' W 000°11'0 0.0
2014-Jul-30 13:25N 53°38' W 000°11'0 0.0
2014-Jul-30 12:25N 53°38' W 000°11'0 0.0
2014-Jul-30 11:28N 53°38' W 000°11'0 0.0
2014-Jul-30 10:31N 53°38' W 000°11'0 0.0
2014-Jul-30 09:31N 53°38' W 000°11'0 0.0
2014-Jul-30 08:22N 53°38' W 000°11'0 0.0
2014-Jul-30 07:31N 53°38' W 000°11'0 0.0
2014-Jul-30 06:31N 53°38' W 000°11'0 0.0
2014-Jul-30 05:28N 53°38' W 000°11'0 0.0
2014-Jul-30 04:31N 53°38' W 000°11'0 0.0
2014-Jul-30 03:31N 53°38' W 000°11'0 0.0
2014-Jul-30 02:28N 53°38' W 000°11'0 0.0
2014-Jul-30 01:31N 53°38' W 000°11'0 0.0
2014-Jul-30 00:31N 53°38' W 000°11'0 0.0
2014-Jul-29 23:31N 53°38' W 000°11'0 0.0
2014-Jul-29 22:28N 53°38' W 000°11'0 0.0
2014-Jul-29 21:28N 53°38' W 000°11'0 0.0
2014-Jul-29 20:31N 53°38' W 000°11'0 0.0
2014-Jul-29 19:22N 53°38' W 000°11'0 0.0
2014-Jul-29 18:28N 53°38' W 000°11'0 0.0
2014-Jul-29 17:31N 53°38' W 000°11'1 1.3
2014-Jul-29 16:33N 53°38' W 000°09'1414.4
2014-Jul-29 15:33N 53°33' E 000°14'7 6.6
2014-Jul-29 14:33N 53°33' E 000°25'5 5.4
2014-Jul-29 13:33N 53°30' E 000°33'6 5.9
2014-Jul-29 12:33N 53°27' E 000°41'8 6.8
2014-Jul-29 11:24N 53°23' E 000°52'7 7.5
2014-Jul-29 10:31N 53°20' E 001°02'1313.7
2014-Jul-29 09:33N 53°10' E 001°16'1312.6
2014-Jul-29 08:33N 53°01' E 001°30'1212.0
2014-Jul-29 07:34N 52°52' E 001°44'1313.1
2014-Jul-29 06:33N 52°45' E 002°03'7212.0
2014-Jul-29 00:33N 52°06' E 003°42'1111.3
2014-Jul-28 23:33N 52°01' E 003°59'1413.9
2014-Jul-28 22:34N 51°54' E 004°18'1 0.8
2014-Jul-28 21:31N 51°53' E 004°17'0 0.0
2014-Jul-28 20:31N 51°53' E 004°17'0 0.0
2014-Jul-28 19:25N 51°53' E 004°17'0 0.0
2014-Jul-28 18:22N 51°53' E 004°17'0 0.0
2014-Jul-28 17:31N 51°53' E 004°17'0 0.0
2014-Jul-28 16:16N 51°53' E 004°17'0 0.0
2014-Jul-28 15:31N 51°53' E 004°17'0 0.0
2014-Jul-28 14:31N 51°53' E 004°17'0 0.0
2014-Jul-28 13:19N 51°53' E 004°17'0 0.0
2014-Jul-28 12:22N 51°53' E 004°17'0 0.0
2014-Jul-28 11:07N 51°53' E 004°17'0 0.0
2014-Jul-28 10:28N 51°53' E 004°17'0 0.0
2014-Jul-28 09:25N 51°53' E 004°17'0 0.0
2014-Jul-28 08:28N 51°53' E 004°17'0 0.0
2014-Jul-28 07:22N 51°53' E 004°17'0 0.0
2014-Jul-28 06:19N 51°53' E 004°17'0 0.0
2014-Jul-28 05:22N 51°53' E 004°17'0 0.0
2014-Jul-28 04:31N 51°53' E 004°17'0 0.0
2014-Jul-28 03:28N 51°53' E 004°17'0 0.0
2014-Jul-28 02:31N 51°53' E 004°17'0 0.0
2014-Jul-28 01:22N 51°53' E 004°17'0 0.0
2014-Jul-28 00:28N 51°53' E 004°17'0 0.0
2014-Jul-27 23:33N 51°53' E 004°17'5 4.9
2014-Jul-27 22:33N 51°57' E 004°11'1211.6
2014-Jul-27 21:33N 51°59' E 003°53'1211.5
2014-Jul-27 20:33N 51°57' E 003°35'1211.9
2014-Jul-27 19:33N 51°53' E 003°16'1212.4
2014-Jul-27 18:33N 51°50' E 002°57'1312.6
2014-Jul-27 17:33N 51°46' E 002°38'1211.6
2014-Jul-27 16:33N 51°37' E 002°25'1212.1
2014-Jul-27 15:32N 51°27' E 002°13'1110.9
2014-Jul-27 14:33N 51°17' E 002°07'1111.1
2014-Jul-27 13:33N 51°10' E 001°53'1211.8
2014-Jul-27 12:34N 51°02' E 001°40'4213.3
2014-Jul-27 09:24N 50°28' E 000°60'1113.5
2014-Jul-27 08:33N 50°20' E 000°48'1313.4
2014-Jul-27 07:33N 50°10' E 000°34'3012.2
2014-Jul-27 05:07N 49°48' E 000°02'610.8
2014-Jul-27 04:32N 49°44' W 000°04'1111.1
2014-Jul-27 03:33N 49°33' W 000°02'8 8.3
2014-Jul-27 02:34N 49°28' E 000°09'2 2.3
2014-Jul-27 01:33N 49°29' E 000°12'0 0.0
2014-Jul-27 00:33N 49°29' E 000°12'0 0.0
2014-Jul-26 23:33N 49°29' E 000°12'0 0.0
2014-Jul-26 22:33N 49°29' E 000°12'0 0.0
2014-Jul-26 21:33N 49°29' E 000°12'0 0.0
2014-Jul-26 20:33N 49°29' E 000°12'0 0.0
2014-Jul-26 19:33N 49°29' E 000°12'0 0.0
2014-Jul-26 18:30N 49°29' E 000°12'0 0.0
2014-Jul-26 17:33N 49°29' E 000°12'0 0.0
2014-Jul-26 16:33N 49°29' E 000°12'0 0.0
2014-Jul-26 15:33N 49°29' E 000°12'0 0.0
2014-Jul-26 14:33N 49°29' E 000°12'0 0.0
2014-Jul-26 13:33N 49°29' E 000°12'0 0.0
2014-Jul-26 12:33N 49°29' E 000°12'0 0.0
2014-Jul-26 11:33N 49°29' E 000°12'0 0.0
2014-Jul-26 10:33N 49°29' E 000°12'0 0.0
2014-Jul-26 09:33N 49°29' E 000°12'0 0.0
2014-Jul-26 08:33N 49°29' E 000°12'0 0.0
2014-Jul-26 07:33N 49°29' E 000°12'0 0.0
2014-Jul-26 06:33N 49°29' E 000°12'0 0.0
2014-Jul-26 05:33N 49°29' E 000°12'0 0.0
2014-Jul-26 04:33N 49°29' E 000°12'0 0.0
2014-Jul-26 03:33N 49°29' E 000°12'0 0.0
2014-Jul-26 02:33N 49°29' E 000°12'0 0.0
2014-Jul-26 01:33N 49°29' E 000°12'0 0.0
2014-Jul-26 00:33N 49°29' E 000°12'0 0.0
2014-Jul-25 23:33N 49°29' E 000°12'1 1.4
2014-Jul-25 22:33N 49°29' E 000°10'7 7.0
2014-Jul-25 21:33N 49°30' W 000°00'1211.6
2014-Jul-25 20:33N 49°35' W 000°17'1211.8
2014-Jul-25 19:33N 49°40' W 000°33'1312.5
2014-Jul-25 18:33N 49°46' W 000°50'1313.2
2014-Jul-25 17:33N 49°52' W 001°08'1212.0
2014-Jul-25 16:33N 49°54' W 001°27'1110.7
2014-Jul-25 15:33N 49°54' W 001°43'19 8.2
2014-Jul-25 13:15N 49°53' W 002°13'14 7.5
2014-Jul-25 11:25N 49°52' W 002°34'5411.0
2014-Jul-25 06:28N 49°29' W 003°50'1112.3
2014-Jul-25 05:34N 49°23' W 004°05'1312.6
2014-Jul-25 04:33N 49°17' W 004°21'1412.7
2014-Jul-25 03:27N 49°10' W 004°40'1212.9
2014-Jul-25 02:33N 49°04' W 004°55'75 9.0
2014-Jul-24 18:14N 47°51' W 005°18'1010.9
2014-Jul-24 17:18N 47°45' W 005°05'810.9
2014-Jul-24 16:33N 47°40' W 004°56'1211.1
2014-Jul-24 15:27N 47°33' W 004°41'1011.1
2014-Jul-24 14:33N 47°27' W 004°29'1111.1
2014-Jul-24 13:33N 47°21' W 004°16'1211.9
2014-Jul-24 12:33N 47°14' W 004°01'1514.6
2014-Jul-24 11:33N 47°05' W 003°44'1514.2
2014-Jul-24 10:31N 46°56' W 003°27'2512.3
2014-Jul-24 08:26N 46°42' W 002°56'1011.7
2014-Jul-24 07:33N 46°36' W 002°44'1211.8
2014-Jul-24 06:33N 46°29' W 002°30'1211.9
2014-Jul-24 05:33N 46°21' W 002°17'1211.9
2014-Jul-24 04:33N 46°14' W 002°03'1211.7
2014-Jul-24 03:33N 46°09' W 001°48'1211.9
2014-Jul-24 02:33N 46°07' W 001°31'1110.5
2014-Jul-24 01:31N 46°08' W 001°15'3 0.2
2014-Jul-23 08:21N 46°05' W 001°17'6 2.6
2014-Jul-23 06:08N 46°07' W 001°25'813.2
2014-Jul-23 05:33N 46°07' W 001°36'1413.8
2014-Jul-23 04:34N 46°14' W 001°53'1414.5
2014-Jul-23 03:34N 46°23' W 002°09'1514.6
2014-Jul-23 02:34N 46°32' W 002°26'3314.7
2014-Jul-23 00:17N 46°53' W 003°04'1115.0
2014-Jul-22 23:33N 46°60' W 003°16'1515.0
2014-Jul-22 22:33N 47°10' W 003°33'6114.5
2014-Jul-22 18:21N 47°48' W 004°43'1214.7
2014-Jul-22 17:33N 47°55' W 004°57'1313.2
2014-Jul-22 16:34N 48°05' W 005°10'1515.0
2014-Jul-22 15:34N 48°14' W 004°53'1514.6
2014-Jul-22 14:33N 48°21' W 004°33'5 4.4
2014-Jul-22 13:31N 48°23' W 004°27'0 0.0
2014-Jul-22 12:31N 48°23' W 004°27'0 0.0
2014-Jul-22 11:31N 48°23' W 004°27'0 0.0
2014-Jul-22 10:31N 48°23' W 004°27'0 0.0
2014-Jul-22 09:31N 48°23' W 004°27'0 0.0
2014-Jul-22 08:31N 48°23' W 004°27'0 0.0
2014-Jul-22 07:31N 48°23' W 004°27'0 0.0
2014-Jul-22 06:31N 48°23' W 004°27'0 0.0
2014-Jul-22 05:31N 48°23' W 004°27'0 0.0
2014-Jul-22 04:31N 48°23' W 004°27'0 0.3
2014-Jul-22 03:33N 48°23' W 004°27'1010.3
2014-Jul-22 02:33N 48°18' W 004°41'1010.3
2014-Jul-22 01:33N 48°15' W 004°56'1110.9
2014-Jul-22 00:33N 48°18' W 005°12'1111.1
2014-Jul-21 23:33N 48°22' W 005°27'1110.9
2014-Jul-21 22:33N 48°26' W 005°42'1111.4
2014-Jul-21 21:33N 48°33' W 005°56'2010.0
2014-Jul-21 19:33N 48°52' W 005°48'  

Dump ship's entire track history